sensor_id;sensor_type;location;lat;lon;timestamp;P1;P2;P0
39955;PMS5003;25631;51.516;-0.470;2023-04-25T00:01:05;15;15;
39955;PMS5003;25631;51.516;-0.470;2023-04-25T00:03:42;14;14;
39955;PMS5003;25631;51.516;-0.470;2023-04-25T00:06:19;18;18;
39955;PMS5003;25631;51.516;-0.470;2023-04-25T00:08:56;17;17;
39955;PMS5003;25631;51.516;-0.470;2023-04-25T00:11:33;18;17;
39955;PMS5003;25631;51.516;-0.470;2023-04-25T00:14:10;10;9;
39955;PMS5003;25631;51.516;-0.470;2023-04-25T00:16:47;9;9;
39955;PMS5003;25631;51.516;-0.470;2023-04-25T00:19:24;15;15;
39955;PMS5003;25631;51.516;-0.470;2023-04-25T00:22:06;13;13;
39955;PMS5003;25631;51.516;-0.470;2023-04-25T00:24:47;12;12;
39955;PMS5003;25631;51.516;-0.470;2023-04-25T00:27:24;2;2;
39955;PMS5003;25631;51.516;-0.470;2023-04-25T00:30:00;2;2;
39955;PMS5003;25631;51.516;-0.470;2023-04-25T00:32:37;1;1;
39955;PMS5003;25631;51.516;-0.470;2023-04-25T00:35:18;9;9;
39955;PMS5003;25631;51.516;-0.470;2023-04-25T00:37:55;8;8;
39955;PMS5003;25631;51.516;-0.470;2023-04-25T00:40:31;6;6;
39955;PMS5003;25631;51.516;-0.470;2023-04-25T00:43:08;6;6;
39955;PMS5003;25631;51.516;-0.470;2023-04-25T00:45:50;6;5;
39955;PMS5003;25631;51.516;-0.470;2023-04-25T00:48:28;4;4;
39955;PMS5003;25631;51.516;-0.470;2023-04-25T00:51:07;4;4;
39955;PMS5003;25631;51.516;-0.470;2023-04-25T00:53:45;6;6;
39955;PMS5003;25631;51.516;-0.470;2023-04-25T00:56:23;6;6;
39955;PMS5003;25631;51.516;-0.470;2023-04-25T00:59:00;8;8;
39955;PMS5003;25631;51.516;-0.470;2023-04-25T01:01:42;6;5;
39955;PMS5003;25631;51.516;-0.470;2023-04-25T01:04:20;6;4;
39955;PMS5003;25631;51.516;-0.470;2023-04-25T01:06:58;5;4;
39955;PMS5003;25631;51.516;-0.470;2023-04-25T01:09:35;4;4;
39955;PMS5003;25631;51.516;-0.470;2023-04-25T01:12:11;4;4;
39955;PMS5003;25631;51.516;-0.470;2023-04-25T01:14:49;4;3;
39955;PMS5003;25631;51.516;-0.470;2023-04-25T01:17:25;3;2;
39955;PMS5003;25631;51.516;-0.470;2023-04-25T01:20:03;3;2;
39955;PMS5003;25631;51.516;-0.470;2023-04-25T01:22:40;3;3;
39955;PMS5003;25631;51.516;-0.470;2023-04-25T01:25:17;2;2;
39955;PMS5003;25631;51.516;-0.470;2023-04-25T01:27:54;4;2;
39955;PMS5003;25631;51.516;-0.470;2023-04-25T01:30:30;4;2;
39955;PMS5003;25631;51.516;-0.470;2023-04-25T01:33:08;2;1;
39955;PMS5003;25631;51.516;-0.470;2023-04-25T01:35:44;6;4;
39955;PMS5003;25631;51.516;-0.470;2023-04-25T01:38:21;6;5;
39955;PMS5003;25631;51.516;-0.470;2023-04-25T01:40:57;10;9;
39955;PMS5003;25631;51.516;-0.470;2023-04-25T01:43:34;12;11;
39955;PMS5003;25631;51.516;-0.470;2023-04-25T01:46:11;12;10;
39955;PMS5003;25631;51.516;-0.470;2023-04-25T01:48:47;7;6;
39955;PMS5003;25631;51.516;-0.470;2023-04-25T01:51:24;8;6;
39955;PMS5003;25631;51.516;-0.470;2023-04-25T01:54:00;5;5;
39955;PMS5003;25631;51.516;-0.470;2023-04-25T01:56:37;4;4;
39955;PMS5003;25631;51.516;-0.470;2023-04-25T01:59:15;4;4;
39955;PMS5003;25631;51.516;-0.470;2023-04-25T02:01:51;4;4;
39955;PMS5003;25631;51.516;-0.470;2023-04-25T02:04:28;5;4;
39955;PMS5003;25631;51.516;-0.470;2023-04-25T02:07:05;5;4;
39955;PMS5003;25631;51.516;-0.470;2023-04-25T02:09:41;6;4;
39955;PMS5003;25631;51.516;-0.470;2023-04-25T02:12:17;6;5;
39955;PMS5003;25631;51.516;-0.470;2023-04-25T02:14:54;11;10;
39955;PMS5003;25631;51.516;-0.470;2023-04-25T02:17:30;11;10;
39955;PMS5003;25631;51.516;-0.470;2023-04-25T02:20:07;10;9;
39955;PMS5003;25631;51.516;-0.470;2023-04-25T02:22:44;10;9;
39955;PMS5003;25631;51.516;-0.470;2023-04-25T02:25:20;10;9;
39955;PMS5003;25631;51.516;-0.470;2023-04-25T02:27:58;13;11;
39955;PMS5003;25631;51.516;-0.470;2023-04-25T02:30:35;13;12;
39955;PMS5003;25631;51.516;-0.470;2023-04-25T02:33:12;15;12;
39955;PMS5003;25631;51.516;-0.470;2023-04-25T02:35:48;10;9;
39955;PMS5003;25631;51.516;-0.470;2023-04-25T02:38:25;10;9;
39955;PMS5003;25631;51.516;-0.470;2023-04-25T02:41:02;6;6;
39955;PMS5003;25631;51.516;-0.470;2023-04-25T02:43:38;7;5;
39955;PMS5003;25631;51.516;-0.470;2023-04-25T02:46:14;7;5;
39955;PMS5003;25631;51.516;-0.470;2023-04-25T02:48:51;3;3;
39955;PMS5003;25631;51.516;-0.470;2023-04-25T02:51:27;3;2;
39955;PMS5003;25631;51.516;-0.470;2023-04-25T02:54:04;2;2;
39955;PMS5003;25631;51.516;-0.470;2023-04-25T02:56:40;7;6;
39955;PMS5003;25631;51.516;-0.470;2023-04-25T02:59:17;5;5;
39955;PMS5003;25631;51.516;-0.470;2023-04-25T03:01:53;1;1;
39955;PMS5003;25631;51.516;-0.470;2023-04-25T03:04:30;1;1;
39955;PMS5003;25631;51.516;-0.470;2023-04-25T03:07:06;2;1;
39955;PMS5003;25631;51.516;-0.470;2023-04-25T03:09:43;4;3;
39955;PMS5003;25631;51.516;-0.470;2023-04-25T03:12:20;3;2;
39955;PMS5003;25631;51.516;-0.470;2023-04-25T03:14:56;2;2;
39955;PMS5003;25631;51.516;-0.470;2023-04-25T03:17:32;3;2;
39955;PMS5003;25631;51.516;-0.470;2023-04-25T03:20:09;2;2;
39955;PMS5003;25631;51.516;-0.470;2023-04-25T03:22:46;1;1;
39955;PMS5003;25631;51.516;-0.470;2023-04-25T03:25:23;1;1;
39955;PMS5003;25631;51.516;-0.470;2023-04-25T03:27:59;3;2;
39955;PMS5003;25631;51.516;-0.470;2023-04-25T03:30:36;2;2;
39955;PMS5003;25631;51.516;-0.470;2023-04-25T03:33:12;3;2;
39955;PMS5003;25631;51.516;-0.470;2023-04-25T03:35:48;3;2;
39955;PMS5003;25631;51.516;-0.470;2023-04-25T03:38:25;4;3;
39955;PMS5003;25631;51.516;-0.470;2023-04-25T03:41:01;3;2;
39955;PMS5003;25631;51.516;-0.470;2023-04-25T03:43:38;3;2;
39955;PMS5003;25631;51.516;-0.470;2023-04-25T03:46:15;4;3;
39955;PMS5003;25631;51.516;-0.470;2023-04-25T03:48:51;4;3;
39955;PMS5003;25631;51.516;-0.470;2023-04-25T03:51:27;2;2;
39955;PMS5003;25631;51.516;-0.470;2023-04-25T03:54:04;2;2;
39955;PMS5003;25631;51.516;-0.470;2023-04-25T03:56:40;3;2;
39955;PMS5003;25631;51.516;-0.470;2023-04-25T03:59:16;3;2;
39955;PMS5003;25631;51.516;-0.470;2023-04-25T04:01:53;2;1;
39955;PMS5003;25631;51.516;-0.470;2023-04-25T04:04:30;2;1;
39955;PMS5003;25631;51.516;-0.470;2023-04-25T04:07:06;2;1;
39955;PMS5003;25631;51.516;-0.470;2023-04-25T04:09:43;4;2;
39955;PMS5003;25631;51.516;-0.470;2023-04-25T04:12:19;3;2;
39955;PMS5003;25631;51.516;-0.470;2023-04-25T04:14:56;6;4;
39955;PMS5003;25631;51.516;-0.470;2023-04-25T04:17:32;6;4;
39955;PMS5003;25631;51.516;-0.470;2023-04-25T04:20:10;5;4;
39955;PMS5003;25631;51.516;-0.470;2023-04-25T04:22:46;2;2;
39955;PMS5003;25631;51.516;-0.470;2023-04-25T04:25:23;2;2;
39955;PMS5003;25631;51.516;-0.470;2023-04-25T04:27:59;4;2;
39955;PMS5003;25631;51.516;-0.470;2023-04-25T04:30:36;1;0;
39955;PMS5003;25631;51.516;-0.470;2023-04-25T04:33:13;3;1;
39955;PMS5003;25631;51.516;-0.470;2023-04-25T04:35:50;2;2;
39955;PMS5003;25631;51.516;-0.470;2023-04-25T04:38:27;1;1;
39955;PMS5003;25631;51.516;-0.470;2023-04-25T04:41:04;2;2;
39955;PMS5003;25631;51.516;-0.470;2023-04-25T04:43:40;1;0;
39955;PMS5003;25631;51.516;-0.470;2023-04-25T04:46:16;3;2;
39955;PMS5003;25631;51.516;-0.470;2023-04-25T04:48:53;3;2;
39955;PMS5003;25631;51.516;-0.470;2023-04-25T04:51:29;3;2;
39955;PMS5003;25631;51.516;-0.470;2023-04-25T04:54:06;3;2;
39955;PMS5003;25631;51.516;-0.470;2023-04-25T04:56:42;2;2;
39955;PMS5003;25631;51.516;-0.470;2023-04-25T04:59:19;4;2;
39955;PMS5003;25631;51.516;-0.470;2023-04-25T05:01:55;1;1;
39955;PMS5003;25631;51.516;-0.470;2023-04-25T05:04:32;2;2;
39955;PMS5003;25631;51.516;-0.470;2023-04-25T05:07:08;2;2;
39955;PMS5003;25631;51.516;-0.470;2023-04-25T05:09:45;3;1;
39955;PMS5003;25631;51.516;-0.470;2023-04-25T05:12:21;2;2;
39955;PMS5003;25631;51.516;-0.470;2023-04-25T05:14:57;6;3;
39955;PMS5003;25631;51.516;-0.470;2023-04-25T05:17:34;2;1;
39955;PMS5003;25631;51.516;-0.470;2023-04-25T05:20:10;3;3;
39955;PMS5003;25631;51.516;-0.470;2023-04-25T05:22:47;3;2;
39955;PMS5003;25631;51.516;-0.470;2023-04-25T05:25:23;3;2;
39955;PMS5003;25631;51.516;-0.470;2023-04-25T05:27:59;7;7;
39955;PMS5003;25631;51.516;-0.470;2023-04-25T05:30:36;2;1;
39955;PMS5003;25631;51.516;-0.470;2023-04-25T05:33:12;2;1;
39955;PMS5003;25631;51.516;-0.470;2023-04-25T05:35:49;3;3;
39955;PMS5003;25631;51.516;-0.470;2023-04-25T05:38:26;3;3;
39955;PMS5003;25631;51.516;-0.470;2023-04-25T05:41:02;2;2;
39955;PMS5003;25631;51.516;-0.470;2023-04-25T05:43:39;2;2;
39955;PMS5003;25631;51.516;-0.470;2023-04-25T05:46:15;3;2;
39955;PMS5003;25631;51.516;-0.470;2023-04-25T05:48:52;2;1;
39955;PMS5003;25631;51.516;-0.470;2023-04-25T05:51:28;3;2;
39955;PMS5003;25631;51.516;-0.470;2023-04-25T05:54:05;10;7;
39955;PMS5003;25631;51.516;-0.470;2023-04-25T05:56:41;4;4;
39955;PMS5003;25631;51.516;-0.470;2023-04-25T05:59:17;6;4;
39955;PMS5003;25631;51.516;-0.470;2023-04-25T06:01:53;5;3;
39955;PMS5003;25631;51.516;-0.470;2023-04-25T06:04:30;1;1;
39955;PMS5003;25631;51.516;-0.470;2023-04-25T06:07:06;0;0;
39955;PMS5003;25631;51.516;-0.470;2023-04-25T06:09:43;2;2;
39955;PMS5003;25631;51.516;-0.470;2023-04-25T06:12:20;1;1;
39955;PMS5003;25631;51.516;-0.470;2023-04-25T06:14:56;2;2;
39955;PMS5003;25631;51.516;-0.470;2023-04-25T06:17:32;4;2;
39955;PMS5003;25631;51.516;-0.470;2023-04-25T06:20:09;1;1;
39955;PMS5003;25631;51.516;-0.470;2023-04-25T06:22:47;2;1;
39955;PMS5003;25631;51.516;-0.470;2023-04-25T06:25:23;2;1;
39955;PMS5003;25631;51.516;-0.470;2023-04-25T06:27:59;2;2;
39955;PMS5003;25631;51.516;-0.470;2023-04-25T06:30:36;2;1;
39955;PMS5003;25631;51.516;-0.470;2023-04-25T06:33:12;2;2;
39955;PMS5003;25631;51.516;-0.470;2023-04-25T06:35:49;1;1;
39955;PMS5003;25631;51.516;-0.470;2023-04-25T06:38:25;4;3;
39955;PMS5003;25631;51.516;-0.470;2023-04-25T06:41:01;3;2;
39955;PMS5003;25631;51.516;-0.470;2023-04-25T06:43:38;4;2;
39955;PMS5003;25631;51.516;-0.470;2023-04-25T06:46:14;5;2;
39955;PMS5003;25631;51.516;-0.470;2023-04-25T06:48:51;4;2;
39955;PMS5003;25631;51.516;-0.470;2023-04-25T06:51:27;3;1;
39955;PMS5003;25631;51.516;-0.470;2023-04-25T06:54:04;3;2;
39955;PMS5003;25631;51.516;-0.470;2023-04-25T06:56:40;4;3;
39955;PMS5003;25631;51.516;-0.470;2023-04-25T06:59:17;3;2;
39955;PMS5003;25631;51.516;-0.470;2023-04-25T07:01:54;3;2;
39955;PMS5003;25631;51.516;-0.470;2023-04-25T07:04:30;2;2;
39955;PMS5003;25631;51.516;-0.470;2023-04-25T07:07:06;1;1;
39955;PMS5003;25631;51.516;-0.470;2023-04-25T07:09:43;2;1;
39955;PMS5003;25631;51.516;-0.470;2023-04-25T07:12:19;3;2;
39955;PMS5003;25631;51.516;-0.470;2023-04-25T07:14:55;2;2;
39955;PMS5003;25631;51.516;-0.470;2023-04-25T07:17:32;6;4;
39955;PMS5003;25631;51.516;-0.470;2023-04-25T07:20:08;5;3;
39955;PMS5003;25631;51.516;-0.470;2023-04-25T07:22:45;4;3;
39955;PMS5003;25631;51.516;-0.470;2023-04-25T07:25:22;3;2;
39955;PMS5003;25631;51.516;-0.470;2023-04-25T07:27:58;3;2;
39955;PMS5003;25631;51.516;-0.470;2023-04-25T07:30:35;5;5;
39955;PMS5003;25631;51.516;-0.470;2023-04-25T07:33:12;3;3;
39955;PMS5003;25631;51.516;-0.470;2023-04-25T07:35:48;3;3;
39955;PMS5003;25631;51.516;-0.470;2023-04-25T07:38:25;6;4;
39955;PMS5003;25631;51.516;-0.470;2023-04-25T07:41:01;6;3;
39955;PMS5003;25631;51.516;-0.470;2023-04-25T07:43:38;5;3;
39955;PMS5003;25631;51.516;-0.470;2023-04-25T07:46:14;3;3;
39955;PMS5003;25631;51.516;-0.470;2023-04-25T07:48:50;3;3;
39955;PMS5003;25631;51.516;-0.470;2023-04-25T07:51:27;5;5;
39955;PMS5003;25631;51.516;-0.470;2023-04-25T07:54:03;3;3;
39955;PMS5003;25631;51.516;-0.470;2023-04-25T07:56:40;4;3;
39955;PMS5003;25631;51.516;-0.470;2023-04-25T07:59:16;4;3;
39955;PMS5003;25631;51.516;-0.470;2023-04-25T08:01:53;4;2;
39955;PMS5003;25631;51.516;-0.470;2023-04-25T08:04:30;7;5;
39955;PMS5003;25631;51.516;-0.470;2023-04-25T08:07:06;6;5;
39955;PMS5003;25631;51.516;-0.470;2023-04-25T08:09:43;6;4;
39955;PMS5003;25631;51.516;-0.470;2023-04-25T08:12:19;2;2;
39955;PMS5003;25631;51.516;-0.470;2023-04-25T08:14:56;3;3;
39955;PMS5003;25631;51.516;-0.470;2023-04-25T08:17:32;10;8;
39955;PMS5003;25631;51.516;-0.470;2023-04-25T08:20:09;6;5;
39955;PMS5003;25631;51.516;-0.470;2023-04-25T08:22:46;6;4;
39955;PMS5003;25631;51.516;-0.470;2023-04-25T08:25:23;11;6;
39955;PMS5003;25631;51.516;-0.470;2023-04-25T08:27:59;18;8;
39955;PMS5003;25631;51.516;-0.470;2023-04-25T08:30:36;4;3;
39955;PMS5003;25631;51.516;-0.470;2023-04-25T08:33:13;4;3;
39955;PMS5003;25631;51.516;-0.470;2023-04-25T08:35:49;3;3;
39955;PMS5003;25631;51.516;-0.470;2023-04-25T08:38:26;7;4;
39955;PMS5003;25631;51.516;-0.470;2023-04-25T08:41:03;11;5;
39955;PMS5003;25631;51.516;-0.470;2023-04-25T08:43:42;12;8;
39955;PMS5003;25631;51.516;-0.470;2023-04-25T08:46:18;4;3;
39955;PMS5003;25631;51.516;-0.470;2023-04-25T08:48:55;4;4;
39955;PMS5003;25631;51.516;-0.470;2023-04-25T08:51:39;4;4;
39955;PMS5003;25631;51.516;-0.470;2023-04-25T08:54:20;4;4;
39955;PMS5003;25631;51.516;-0.470;2023-04-25T08:57:00;3;3;
39955;PMS5003;25631;51.516;-0.470;2023-04-25T08:59:37;3;3;
39955;PMS5003;25631;51.516;-0.470;2023-04-25T09:02:16;3;3;
39955;PMS5003;25631;51.516;-0.470;2023-04-25T09:04:53;4;4;
39955;PMS5003;25631;51.516;-0.470;2023-04-25T09:07:30;4;3;
39955;PMS5003;25631;51.516;-0.470;2023-04-25T09:10:07;3;3;
39955;PMS5003;25631;51.516;-0.470;2023-04-25T09:12:44;6;5;
39955;PMS5003;25631;51.516;-0.470;2023-04-25T09:15:20;6;4;
39955;PMS5003;25631;51.516;-0.470;2023-04-25T09:17:56;6;4;
39955;PMS5003;25631;51.516;-0.470;2023-04-25T09:20:37;4;2;
39955;PMS5003;25631;51.516;-0.470;2023-04-25T09:23:18;4;2;
39955;PMS5003;25631;51.516;-0.470;2023-04-25T09:25:55;6;4;
39955;PMS5003;25631;51.516;-0.470;2023-04-25T09:28:32;6;4;
39955;PMS5003;25631;51.516;-0.470;2023-04-25T09:31:09;5;3;
39955;PMS5003;25631;51.516;-0.470;2023-04-25T09:33:46;4;2;
39955;PMS5003;25631;51.516;-0.470;2023-04-25T09:36:23;4;2;
39955;PMS5003;25631;51.516;-0.470;2023-04-25T09:39:02;5;3;
39955;PMS5003;25631;51.516;-0.470;2023-04-25T09:41:54;6;3;
39955;PMS5003;25631;51.516;-0.470;2023-04-25T09:44:30;5;2;
39955;PMS5003;25631;51.516;-0.470;2023-04-25T09:47:08;5;3;
39955;PMS5003;25631;51.516;-0.470;2023-04-25T09:49:45;6;4;
39955;PMS5003;25631;51.516;-0.470;2023-04-25T09:52:23;5;3;
39955;PMS5003;25631;51.516;-0.470;2023-04-25T09:55:00;4;2;
39955;PMS5003;25631;51.516;-0.470;2023-04-25T09:57:42;4;1;
39955;PMS5003;25631;51.516;-0.470;2023-04-25T10:00:22;5;3;
39955;PMS5003;25631;51.516;-0.470;2023-04-25T10:03:00;4;2;
39955;PMS5003;25631;51.516;-0.470;2023-04-25T10:05:37;2;2;
39955;PMS5003;25631;51.516;-0.470;2023-04-25T10:08:14;2;2;
39955;PMS5003;25631;51.516;-0.470;2023-04-25T10:10:52;4;4;
39955;PMS5003;25631;51.516;-0.470;2023-04-25T10:13:28;5;3;
39955;PMS5003;25631;51.516;-0.470;2023-04-25T10:16:06;5;3;
39955;PMS5003;25631;51.516;-0.470;2023-04-25T10:18:43;4;4;
39955;PMS5003;25631;51.516;-0.470;2023-04-25T10:21:19;3;3;
39955;PMS5003;25631;51.516;-0.470;2023-04-25T10:23:57;5;4;
39955;PMS5003;25631;51.516;-0.470;2023-04-25T10:26:34;5;4;
39955;PMS5003;25631;51.516;-0.470;2023-04-25T10:29:11;7;4;
39955;PMS5003;25631;51.516;-0.470;2023-04-25T10:31:47;4;3;
39955;PMS5003;25631;51.516;-0.470;2023-04-25T10:34:37;3;3;
39955;PMS5003;25631;51.516;-0.470;2023-04-25T10:37:14;3;3;
39955;PMS5003;25631;51.516;-0.470;2023-04-25T10:39:51;3;1;
39955;PMS5003;25631;51.516;-0.470;2023-04-25T10:42:28;4;2;
39955;PMS5003;25631;51.516;-0.470;2023-04-25T10:45:05;4;2;
39955;PMS5003;25631;51.516;-0.470;2023-04-25T10:47:43;1;1;
39955;PMS5003;25631;51.516;-0.470;2023-04-25T10:50:20;2;2;
39955;PMS5003;25631;51.516;-0.470;2023-04-25T10:52:56;2;2;
39955;PMS5003;25631;51.516;-0.470;2023-04-25T10:55:50;1;1;
39955;PMS5003;25631;51.516;-0.470;2023-04-25T10:58:28;1;1;
39955;PMS5003;25631;51.516;-0.470;2023-04-25T11:01:05;3;2;
39955;PMS5003;25631;51.516;-0.470;2023-04-25T11:03:43;3;2;
39955;PMS5003;25631;51.516;-0.470;2023-04-25T11:06:22;2;2;
39955;PMS5003;25631;51.516;-0.470;2023-04-25T11:09:09;3;1;
39955;PMS5003;25631;51.516;-0.470;2023-04-25T11:11:53;2;1;
39955;PMS5003;25631;51.516;-0.470;2023-04-25T11:14:30;2;2;
39955;PMS5003;25631;51.516;-0.470;2023-04-25T11:17:08;1;1;
39955;PMS5003;25631;51.516;-0.470;2023-04-25T11:19:45;2;0;
39955;PMS5003;25631;51.516;-0.470;2023-04-25T11:22:24;2;0;
39955;PMS5003;25631;51.516;-0.470;2023-04-25T11:25:04;2;0;
39955;PMS5003;25631;51.516;-0.470;2023-04-25T11:27:49;3;1;
39955;PMS5003;25631;51.516;-0.470;2023-04-25T11:30:26;1;1;
39955;PMS5003;25631;51.516;-0.470;2023-04-25T11:33:03;0;0;
39955;PMS5003;25631;51.516;-0.470;2023-04-25T11:35:40;2;2;
39955;PMS5003;25631;51.516;-0.470;2023-04-25T11:38:16;2;2;
39955;PMS5003;25631;51.516;-0.470;2023-04-25T11:40:53;2;2;
39955;PMS5003;25631;51.516;-0.470;2023-04-25T11:43:29;2;2;
39955;PMS5003;25631;51.516;-0.470;2023-04-25T11:46:06;1;1;
39955;PMS5003;25631;51.516;-0.470;2023-04-25T11:48:43;2;1;
39955;PMS5003;25631;51.516;-0.470;2023-04-25T11:51:19;3;2;
39955;PMS5003;25631;51.516;-0.470;2023-04-25T11:53:56;3;2;
39955;PMS5003;25631;51.516;-0.470;2023-04-25T11:56:32;3;3;
39955;PMS5003;25631;51.516;-0.470;2023-04-25T11:59:09;4;3;
39955;PMS5003;25631;51.516;-0.470;2023-04-25T12:01:48;2;2;
39955;PMS5003;25631;51.516;-0.470;2023-04-25T12:04:25;4;3;
39955;PMS5003;25631;51.516;-0.470;2023-04-25T12:07:02;2;2;
39955;PMS5003;25631;51.516;-0.470;2023-04-25T12:09:38;2;2;
39955;PMS5003;25631;51.516;-0.470;2023-04-25T12:12:15;1;1;
39955;PMS5003;25631;51.516;-0.470;2023-04-25T12:14:51;2;1;
39955;PMS5003;25631;51.516;-0.470;2023-04-25T12:17:28;3;1;
39955;PMS5003;25631;51.516;-0.470;2023-04-25T12:20:07;2;1;
39955;PMS5003;25631;51.516;-0.470;2023-04-25T12:22:45;2;1;
39955;PMS5003;25631;51.516;-0.470;2023-04-25T12:25:38;1;1;
39955;PMS5003;25631;51.516;-0.470;2023-04-25T12:28:16;2;2;
39955;PMS5003;25631;51.516;-0.470;2023-04-25T12:30:55;2;1;
39955;PMS5003;25631;51.516;-0.470;2023-04-25T12:33:34;4;3;
39955;PMS5003;25631;51.516;-0.470;2023-04-25T12:36:11;3;3;
39955;PMS5003;25631;51.516;-0.470;2023-04-25T12:38:47;0;0;
39955;PMS5003;25631;51.516;-0.470;2023-04-25T12:41:24;2;2;
39955;PMS5003;25631;51.516;-0.470;2023-04-25T12:44:00;2;2;
39955;PMS5003;25631;51.516;-0.470;2023-04-25T12:46:37;2;2;
39955;PMS5003;25631;51.516;-0.470;2023-04-25T12:49:14;3;3;
39955;PMS5003;25631;51.516;-0.470;2023-04-25T12:51:50;2;2;
39955;PMS5003;25631;51.516;-0.470;2023-04-25T12:54:27;1;1;
39955;PMS5003;25631;51.516;-0.470;2023-04-25T12:57:03;2;2;
39955;PMS5003;25631;51.516;-0.470;2023-04-25T12:59:39;2;1;
39955;PMS5003;25631;51.516;-0.470;2023-04-25T13:02:16;1;1;
39955;PMS5003;25631;51.516;-0.470;2023-04-25T13:04:53;1;0;
39955;PMS5003;25631;51.516;-0.470;2023-04-25T13:07:30;2;1;
39955;PMS5003;25631;51.516;-0.470;2023-04-25T13:10:07;1;0;
39955;PMS5003;25631;51.516;-0.470;2023-04-25T13:12:43;1;1;
39955;PMS5003;25631;51.516;-0.470;2023-04-25T13:15:20;1;1;
39955;PMS5003;25631;51.516;-0.470;2023-04-25T13:17:57;1;1;
39955;PMS5003;25631;51.516;-0.470;2023-04-25T13:20:33;2;1;
39955;PMS5003;25631;51.516;-0.470;2023-04-25T13:23:10;1;0;
39955;PMS5003;25631;51.516;-0.470;2023-04-25T13:25:46;2;2;
39955;PMS5003;25631;51.516;-0.470;2023-04-25T13:28:23;3;2;
39955;PMS5003;25631;51.516;-0.470;2023-04-25T13:30:59;3;2;
39955;PMS5003;25631;51.516;-0.470;2023-04-25T13:33:36;3;3;
39955;PMS5003;25631;51.516;-0.470;2023-04-25T13:36:12;2;2;
39955;PMS5003;25631;51.516;-0.470;2023-04-25T13:38:48;0;0;
39955;PMS5003;25631;51.516;-0.470;2023-04-25T13:41:25;0;0;
39955;PMS5003;25631;51.516;-0.470;2023-04-25T13:44:02;1;1;
39955;PMS5003;25631;51.516;-0.470;2023-04-25T13:46:38;1;1;
39955;PMS5003;25631;51.516;-0.470;2023-04-25T13:49:15;1;1;
39955;PMS5003;25631;51.516;-0.470;2023-04-25T13:51:51;1;1;
39955;PMS5003;25631;51.516;-0.470;2023-04-25T13:54:27;0;0;
39955;PMS5003;25631;51.516;-0.470;2023-04-25T13:57:04;0;0;
39955;PMS5003;25631;51.516;-0.470;2023-04-25T13:59:41;2;2;
39955;PMS5003;25631;51.516;-0.470;2023-04-25T14:02:17;1;1;
39955;PMS5003;25631;51.516;-0.470;2023-04-25T14:04:53;2;1;
39955;PMS5003;25631;51.516;-0.470;2023-04-25T14:07:30;1;1;
39955;PMS5003;25631;51.516;-0.470;2023-04-25T14:10:07;0;0;
39955;PMS5003;25631;51.516;-0.470;2023-04-25T14:12:44;0;0;
39955;PMS5003;25631;51.516;-0.470;2023-04-25T14:15:20;0;0;
39955;PMS5003;25631;51.516;-0.470;2023-04-25T14:17:56;1;1;
39955;PMS5003;25631;51.516;-0.470;2023-04-25T14:20:33;1;1;
39955;PMS5003;25631;51.516;-0.470;2023-04-25T14:23:10;1;1;
39955;PMS5003;25631;51.516;-0.470;2023-04-25T14:25:46;1;1;
39955;PMS5003;25631;51.516;-0.470;2023-04-25T14:28:22;1;1;
39955;PMS5003;25631;51.516;-0.470;2023-04-25T14:30:59;1;1;
39955;PMS5003;25631;51.516;-0.470;2023-04-25T14:33:35;2;1;
39955;PMS5003;25631;51.516;-0.470;2023-04-25T14:36:12;1;1;
39955;PMS5003;25631;51.516;-0.470;2023-04-25T14:38:49;1;0;
39955;PMS5003;25631;51.516;-0.470;2023-04-25T14:41:25;2;1;
39955;PMS5003;25631;51.516;-0.470;2023-04-25T14:44:03;0;0;
39955;PMS5003;25631;51.516;-0.470;2023-04-25T14:46:39;1;0;
39955;PMS5003;25631;51.516;-0.470;2023-04-25T14:49:16;2;1;
39955;PMS5003;25631;51.516;-0.470;2023-04-25T14:51:52;2;1;
39955;PMS5003;25631;51.516;-0.470;2023-04-25T14:54:29;2;1;
39955;PMS5003;25631;51.516;-0.470;2023-04-25T14:57:06;1;1;
39955;PMS5003;25631;51.516;-0.470;2023-04-25T14:59:42;2;1;
39955;PMS5003;25631;51.516;-0.470;2023-04-25T15:02:19;2;1;
39955;PMS5003;25631;51.516;-0.470;2023-04-25T15:04:56;1;1;
39955;PMS5003;25631;51.516;-0.470;2023-04-25T15:07:33;5;4;
39955;PMS5003;25631;51.516;-0.470;2023-04-25T15:10:09;3;3;
39955;PMS5003;25631;51.516;-0.470;2023-04-25T15:12:46;2;2;
39955;PMS5003;25631;51.516;-0.470;2023-04-25T15:15:23;3;3;
39955;PMS5003;25631;51.516;-0.470;2023-04-25T15:17:59;2;2;
39955;PMS5003;25631;51.516;-0.470;2023-04-25T15:20:35;1;1;
39955;PMS5003;25631;51.516;-0.470;2023-04-25T15:23:12;1;0;
39955;PMS5003;25631;51.516;-0.470;2023-04-25T15:25:49;0;0;
39955;PMS5003;25631;51.516;-0.470;2023-04-25T15:28:26;1;0;
39955;PMS5003;25631;51.516;-0.470;2023-04-25T15:31:03;1;0;
39955;PMS5003;25631;51.516;-0.470;2023-04-25T15:33:40;3;3;
39955;PMS5003;25631;51.516;-0.470;2023-04-25T15:36:17;2;2;
39955;PMS5003;25631;51.516;-0.470;2023-04-25T15:38:53;1;1;
39955;PMS5003;25631;51.516;-0.470;2023-04-25T15:41:30;2;2;
39955;PMS5003;25631;51.516;-0.470;2023-04-25T15:44:06;3;3;
39955;PMS5003;25631;51.516;-0.470;2023-04-25T15:46:43;2;2;
39955;PMS5003;25631;51.516;-0.470;2023-04-25T15:49:19;2;2;
39955;PMS5003;25631;51.516;-0.470;2023-04-25T15:51:56;3;2;
39955;PMS5003;25631;51.516;-0.470;2023-04-25T15:54:32;2;1;
39955;PMS5003;25631;51.516;-0.470;2023-04-25T15:57:09;3;2;
39955;PMS5003;25631;51.516;-0.470;2023-04-25T15:59:48;2;1;
39955;PMS5003;25631;51.516;-0.470;2023-04-25T16:02:25;1;1;
39955;PMS5003;25631;51.516;-0.470;2023-04-25T16:05:02;0;0;
39955;PMS5003;25631;51.516;-0.470;2023-04-25T16:07:39;4;2;
39955;PMS5003;25631;51.516;-0.470;2023-04-25T16:10:17;3;2;
39955;PMS5003;25631;51.516;-0.470;2023-04-25T16:12:53;1;1;
39955;PMS5003;25631;51.516;-0.470;2023-04-25T16:15:30;1;1;
39955;PMS5003;25631;51.516;-0.470;2023-04-25T16:18:06;1;1;
39955;PMS5003;25631;51.516;-0.470;2023-04-25T16:20:43;1;0;
39955;PMS5003;25631;51.516;-0.470;2023-04-25T16:23:20;1;0;
39955;PMS5003;25631;51.516;-0.470;2023-04-25T16:25:56;1;0;
39955;PMS5003;25631;51.516;-0.470;2023-04-25T16:28:33;1;1;
39955;PMS5003;25631;51.516;-0.470;2023-04-25T16:31:09;1;1;
39955;PMS5003;25631;51.516;-0.470;2023-04-25T16:33:46;1;1;
39955;PMS5003;25631;51.516;-0.470;2023-04-25T16:36:22;2;1;
39955;PMS5003;25631;51.516;-0.470;2023-04-25T16:38:59;2;1;
39955;PMS5003;25631;51.516;-0.470;2023-04-25T16:41:35;2;2;
39955;PMS5003;25631;51.516;-0.470;2023-04-25T16:44:12;1;1;
39955;PMS5003;25631;51.516;-0.470;2023-04-25T16:46:48;2;2;
39955;PMS5003;25631;51.516;-0.470;2023-04-25T16:49:25;2;2;
39955;PMS5003;25631;51.516;-0.470;2023-04-25T16:52:01;1;1;
39955;PMS5003;25631;51.516;-0.470;2023-04-25T16:54:38;1;1;
39955;PMS5003;25631;51.516;-0.470;2023-04-25T16:57:14;0;0;
39955;PMS5003;25631;51.516;-0.470;2023-04-25T16:59:51;0;0;
39955;PMS5003;25631;51.516;-0.470;2023-04-25T17:02:27;1;1;
39955;PMS5003;25631;51.516;-0.470;2023-04-25T17:05:04;1;1;
39955;PMS5003;25631;51.516;-0.470;2023-04-25T17:07:41;0;0;
39955;PMS5003;25631;51.516;-0.470;2023-04-25T17:10:17;1;1;
39955;PMS5003;25631;51.516;-0.470;2023-04-25T17:12:54;1;1;
39955;PMS5003;25631;51.516;-0.470;2023-04-25T17:15:31;1;1;
39955;PMS5003;25631;51.516;-0.470;2023-04-25T17:18:07;2;2;
39955;PMS5003;25631;51.516;-0.470;2023-04-25T17:20:44;0;0;
39955;PMS5003;25631;51.516;-0.470;2023-04-25T17:23:20;0;0;
39955;PMS5003;25631;51.516;-0.470;2023-04-25T17:25:57;2;2;
39955;PMS5003;25631;51.516;-0.470;2023-04-25T17:28:33;2;2;
39955;PMS5003;25631;51.516;-0.470;2023-04-25T17:31:10;1;1;
39955;PMS5003;25631;51.516;-0.470;2023-04-25T17:33:46;2;2;
39955;PMS5003;25631;51.516;-0.470;2023-04-25T17:36:23;2;2;
39955;PMS5003;25631;51.516;-0.470;2023-04-25T17:39:00;1;1;